Aviation Digital Data Service (ADDS)

Output produced by METARs form (0301 UTC 23 October 2014)
found at http://aviationweather.gov/adds/metars/
 
KMSS 222343Z 2300/2324 02007KT P6SM OVC070 
     FM231600 01007KT 4SM -RA HZ BR OVC025